CheckWX is a tool to help pilots better visualize weather data.  It is not intended as a substitute for an official pre-flight weather briefing.

01:03:58 UTC

CYVP TAF
Kuujjuaq Airport
Kuujjuaq, Canada
TAF CYVP 192340Z 2000/2012 05012G22KT P6SM SCT130 BKN240 BECMG 2004/2006 09012G22KT FM200900 11015G25KT P6SM BKN030 RMK NXT FCST BY 200600Z

Aug-20@
00:00 UTC

Aug-20 @ 00:00 UTC

Aug-20@
04:00 UTC

Aug-20 @ 04:00 UTC

TAF CYVP 192340Z 2000/2012 05012G22KT P6SM SCT130 BKN240
Wind
  • 050° at 12 KTS
  • {Gusting to 22 KTS
Cloud Levels
  • Scattered at 13,000' AGL
  • Broken at 24,000' AGL

Aug-20@
04:00 UTC

Aug-20 @ 04:00 UTC

Aug-20@
09:00 UTC

Aug-20 @ 09:00 UTC

BECMG 2004/2006 09012G22KT

Becoming

Becoming Conditions expected by Tue, Aug 20, 2019 @ 06:00 UTC

Wind
  • 090° at 12 KTS
  • {Gusting to 22 KTS
Cloud Levels
  • Scattered at 13,000' AGL
  • Broken at 24,000' AGL

Aug-20@
09:00 UTC

Aug-20 @ 09:00 UTC

Aug-20@
12:00 UTC

Aug-20 @ 12:00 UTC

FM200900 11015G25KT P6SM BKN030 RMK NXT FCST BY 200600Z

From

From Standard forecast or significant change

Wind
  • 110° at 15 KTS
  • {Gusting to 25 KTS
Cloud Levels
  • Broken at 3,000' AGL